Time;durP1;ratioP1;P1;durP2;ratioP2;P2;SDS_P1;SDS_P2;PMS_P1;PMS_P2;Temp;Humidity;BMP_temperature;BMP_pressure;BME280_temperature;BME280_humidity;BME280_pressure;Samples;Min_cycle;Max_cycle;Signal;HPM_P1;HPM_P2
2024/04/06 00:00:45;;;;;;;;;;;;;;;6.88;100.00;101019.71;106305;1257;62155;-85
2024/04/06 00:03:31;;;;;;;;;;;;;;;6.81;100.00;101021.02;106439;1256;61970;-85
2024/04/06 00:06:17;;;;;;;;;;;;;;;6.76;100.00;101022.05;106878;1254;74039;-85
2024/04/06 00:08:44;;;;;;;;;;;;;;;6.73;100.00;101022.55;106103;1259;69809;-85
2024/04/06 00:11:31;;;;;;;;;;;;;;;6.68;100.00;101018.91;106518;1257;71166;-85
2024/04/06 00:14:19;;;;;;;;;;;;;;;6.63;100.00;101016.95;106486;1254;62171;-85
2024/04/06 00:16:47;;;;;;;;;;;;;;;6.58;100.00;101012.67;106202;1253;62169;-84
2024/04/06 00:19:14;;;;;;;;;;;;;;;6.53;100.00;101011.69;106424;1257;75474;-85
2024/04/06 00:21:42;;;;;;;;;;;;;;;6.48;100.00;101012.98;107357;1256;70999;-85
2024/04/06 00:24:27;;;;;;;;;;;;;;;6.42;100.00;101011.77;106484;1256;73860;-85
2024/04/06 00:27:13;;;;;;;;;;;;;;;6.36;100.00;101008.55;106531;1257;62073;-85
2024/04/06 00:29:41;;;;;;;;;;;;;;;6.31;100.00;101008.60;106498;1254;62054;-85
2024/04/06 00:32:26;;;;;;;;;;;;;;;6.28;100.00;101009.95;106594;1254;76783;-85
2024/04/06 00:35:12;;;;;;;;;;;;;;;6.23;100.00;101007.88;106537;1256;67870;-85
2024/04/06 00:37:58;;;;;;;;;;;;;;;6.18;100.00;101011.79;106474;1256;73973;-85
2024/04/06 00:40:25;;;;;;;;;;;;;;;6.15;100.00;101009.23;107113;1258;62540;-87
2024/04/06 00:42:54;;;;;;;;;;;;;;;6.10;100.00;101008.73;106605;1253;62226;-85
2024/04/06 00:45:40;;;;;;;;;;;;;;;6.05;100.00;101012.79;106591;1256;76721;-85
2024/04/06 00:48:28;;;;;;;;;;;;;;;6.00;100.00;101018.91;106535;1254;67596;-85
2024/04/06 00:50:57;;;;;;;;;;;;;;;5.98;100.00;101018.87;106160;1257;73311;-85
2024/04/06 00:53:42;;;;;;;;;;;;;;;5.94;100.00;101018.71;106376;1256;62076;-85
2024/04/06 00:56:10;;;;;;;;;;;;;;;5.92;100.00;101017.39;103166;1255;4916451;-85
2024/04/06 00:58:41;;;;;;;;;;;;;;;5.91;100.00;101014.83;106796;1260;75611;-85
2024/04/06 01:01:27;;;;;;;;;;;;;;;5.88;100.00;101014.70;106622;1256;70025;-85
2024/04/06 01:04:13;;;;;;;;;;;;;;;5.87;100.00;101011.94;106496;1257;73182;-85
2024/04/06 01:06:58;;;;;;;;;;;;;;;5.84;100.00;101012.86;106581;1257;62129;-85
2024/04/06 01:09:44;;;;;;;;;;;;;;;5.80;100.00;101012.17;107168;1251;61980;-85
2024/04/06 01:12:12;;;;;;;;;;;;;;;5.79;100.00;101015.11;106311;1252;76560;-85
2024/04/06 01:14:39;;;;;;;;;;;;;;;5.77;100.00;101015.30;106417;1255;68591;-85
2024/04/06 01:17:25;;;;;;;;;;;;;;;5.72;100.00;101009.67;106528;1255;72612;-85
2024/04/06 01:20:11;;;;;;;;;;;;;;;5.67;100.00;101012.72;106411;1254;62066;-85
2024/04/06 01:22:56;;;;;;;;;;;;;;;5.62;100.00;101014.05;106589;1256;61964;-85
2024/04/06 01:25:44;;;;;;;;;;;;;;;5.57;100.00;101009.52;106681;1254;74069;-84
2024/04/06 01:28:29;;;;;;;;;;;;;;;5.53;100.00;101009.17;106694;1256;69953;-87
2024/04/06 01:30:57;;;;;;;;;;;;;;;5.52;100.00;101007.73;106372;1254;74984;-85
2024/04/06 01:33:24;;;;;;;;;;;;;;;5.51;100.00;101001.48;106342;1260;62015;-85
2024/04/06 01:35:52;;;;;;;;;;;;;;;5.47;100.00;101001.10;106424;1255;62088;-85
2024/04/06 01:38:37;;;;;;;;;;;;;;;5.45;100.00;101002.17;106585;1254;76818;-85
2024/04/06 01:41:23;;;;;;;;;;;;;;;5.43;100.00;101000.61;107244;1257;67318;-85
2024/04/06 01:43:50;;;;;;;;;;;;;;;5.42;100.00;101001.92;106382;1257;72907;-85
2024/04/06 01:46:36;;;;;;;;;;;;;;;5.39;100.00;101001.92;106533;1253;62085;-85
2024/04/06 01:49:22;;;;;;;;;;;;;;;5.37;100.00;100997.91;106577;1254;61999;-85
2024/04/06 01:52:08;;;;;;;;;;;;;;;5.32;100.00;101000.44;106536;1257;76870;-85
2024/04/06 01:54:36;;;;;;;;;;;;;;;5.29;100.00;101000.30;107304;1254;70620;-85
2024/04/06 01:57:21;;;;;;;;;;;;;;;5.27;100.00;101003.73;106647;1255;73963;-85
2024/04/06 02:00:08;;;;;;;;;;;;;;;5.27;100.00;101002.32;106563;1254;62257;-85
2024/04/06 02:02:57;;;;;;;;;;;;;;;5.24;100.00;101003.77;106664;1256;62044;-85
2024/04/06 02:05:42;;;;;;;;;;;;;;;5.20;100.00;101006.28;106518;1254;76133;-85
2024/04/06 02:08:27;;;;;;;;;;;;;;;5.16;100.00;101004.58;106670;1254;67197;-86
2024/04/06 02:11:13;;;;;;;;;;;;;;;5.16;100.00;101004.66;106698;1255;72725;-85
2024/04/06 02:13:40;;;;;;;;;;;;;;;5.14;100.00;101003.29;106449;1252;62060;-85
2024/04/06 02:16:09;;;;;;;;;;;;;;;5.14;100.00;101005.49;106410;1260;61934;-85
2024/04/06 02:18:55;;;;;;;;;;;;;;;5.11;100.00;101005.69;106498;1254;75275;-86
2024/04/06 02:21:42;;;;;;;;;;;;;;;5.10;100.00;101006.67;106474;1254;67402;-85
2024/04/06 02:24:10;;;;;;;;;;;;;;;5.09;100.00;101006.98;106230;1258;71147;-85
2024/04/06 02:26:41;;;;;;;;;;;;;;;5.06;100.00;101005.97;106169;1254;63089;-85
2024/04/06 02:29:26;;;;;;;;;;;;;;;5.03;100.00;101009.69;107743;1254;62143;-85
2024/04/06 02:31:57;;;;;;;;;;;;;;;5.01;100.00;101005.94;106401;1257;75810;-87
2024/04/06 02:34:42;;;;;;;;;;;;;;;4.98;100.00;101007.66;106576;1256;67192;-85
2024/04/06 02:37:31;;;;;;;;;;;;;;;4.97;100.00;101007.48;106567;1256;71433;-84
2024/04/06 02:39:58;;;;;;;;;;;;;;;4.95;100.00;101005.79;106454;1254;62251;-85
2024/04/06 02:42:46;;;;;;;;;;;;;;;4.93;100.00;101004.73;106477;1254;61938;-84
2024/04/06 02:45:31;;;;;;;;;;;;;;;4.91;100.00;101008.27;106575;1256;76821;-85
2024/04/06 02:47:59;;;;;;;;;;;;;;;4.91;100.00;101010.59;106935;1254;67678;-85
2024/04/06 02:50:26;;;;;;;;;;;;;;;4.88;100.00;101006.83;106351;1258;74944;-85
2024/04/06 02:53:13;;;;;;;;;;;;;;;4.85;100.00;101000.84;106643;1253;62181;-85
2024/04/06 02:55:59;;;;;;;;;;;;;;;4.79;100.00;100993.75;106358;1253;62188;-85
2024/04/06 02:58:44;;;;;;;;;;;;;;;4.74;100.00;100992.63;106504;1254;76878;-85
2024/04/06 03:01:30;;;;;;;;;;;;;;;4.70;100.00;100987.37;106222;1256;69218;-85
2024/04/06 03:03:57;;;;;;;;;;;;;;;4.66;100.00;100988.36;106569;1253;71320;-85
2024/04/06 03:06:25;;;;;;;;;;;;;;;4.63;100.00;100986.65;106448;1254;62632;-85
2024/04/06 03:09:11;;;;;;;;;;;;;;;4.60;100.00;100987.90;106600;1254;62037;-85
2024/04/06 03:11:38;;;;;;;;;;;;;;;4.58;100.00;100990.22;106373;1255;75456;-85
2024/04/06 03:14:24;;;;;;;;;;;;;;;4.55;100.00;100990.42;106571;1256;70049;-85
2024/04/06 03:16:52;;;;;;;;;;;;;;;4.54;100.00;100990.59;106858;1256;74844;-85
2024/04/06 03:19:37;;;;;;;;;;;;;;;4.52;100.00;100996.86;106459;1252;62142;-87
2024/04/06 03:22:06;;;;;;;;;;;;;;;4.50;100.00;100997.67;106362;1260;61977;-85
2024/04/06 03:24:53;;;;;;;;;;;;;;;4.45;100.00;100991.55;106537;1254;74934;-85
2024/04/06 03:27:38;;;;;;;;;;;;;;;4.45;100.00;100999.36;106533;1253;70050;-85
2024/04/06 03:30:07;;;;;;;;;;;;;;;4.45;100.00;100997.69;106279;1254;72762;-85
2024/04/06 03:32:34;;;;;;;;;;;;;;;4.48;100.00;100992.63;106350;1254;62133;-85
2024/04/06 03:35:02;;;;;;;;;;;;;;;4.50;100.00;100994.75;106832;1254;62884;-83
2024/04/06 03:37:29;;;;;;;;;;;;;;;4.53;100.00;100994.58;106446;1257;77569;-83
2024/04/06 03:39:57;;;;;;;;;;;;;;;4.55;100.00;100990.58;106368;1254;70981;-83
2024/04/06 03:42:25;;;;;;;;;;;;;;;4.60;100.00;100984.98;106464;1254;74795;-85
2024/04/06 03:45:13;;;;;;;;;;;;;;;4.65;100.00;100987.80;106444;1257;62092;-83
2024/04/06 03:47:59;;;;;;;;;;;;;;;4.66;100.00;100987.41;106627;1254;62192;-83
2024/04/06 03:50:45;;;;;;;;;;;;;;;4.67;100.00;100981.98;107068;1254;74233;-83
2024/04/06 03:53:32;;;;;;;;;;;;;;;4.69;100.00;100983.95;106499;1254;69982;-83
2024/04/06 03:55:59;;;;;;;;;;;;;;;4.72;100.00;100978.30;106353;1254;72831;-83
2024/04/06 03:58:45;;;;;;;;;;;;;;;4.81;100.00;100981.27;106487;1253;62604;-84
2024/04/06 04:01:30;;;;;;;;;;;;;;;4.91;100.00;100983.80;106610;1254;61989;-84
2024/04/06 04:03:58;;;;;;;;;;;;;;;5.04;100.00;100989.71;107019;1256;76126;-84
2024/04/06 04:06:26;;;;;;;;;;;;;;;5.19;100.00;100993.09;106559;1253;70964;-84
2024/04/06 04:09:15;;;;;;;;;;;;;;;5.37;100.00;100993.15;106532;1256;74102;-84
2024/04/06 04:11:42;;;;;;;;;;;;;;;5.56;100.00;100994.65;106353;1256;62069;-84
2024/04/06 04:14:28;;;;;;;;;;;;;;;5.81;100.00;100992.22;106602;1255;62168;-85
2024/04/06 04:17:14;;;;;;;;;;;;;;;6.06;100.00;100999.07;106382;1257;76868;-84
2024/04/06 04:20:00;;;;;;;;;;;;;;;6.34;100.00;100992.77;107393;1253;67602;-85
2024/04/06 04:22:28;;;;;;;;;;;;;;;6.60;100.00;100994.39;106366;1254;74833;-84
2024/04/06 04:24:57;;;;;;;;;;;;;;;6.91;100.00;100986.93;106439;1254;62201;-85
2024/04/06 04:27:24;;;;;;;;;;;;;;;7.21;100.00;100987.18;106518;1257;62153;-84
2024/04/06 04:30:11;;;;;;;;;;;;;;;7.59;100.00;100989.36;106503;1255;74310;-85
2024/04/06 04:32:38;;;;;;;;;;;;;;;7.99;100.00;100990.98;106402;1254;71131;-85
2024/04/06 04:35:07;;;;;;;;;;;;;;;8.44;100.00;100984.63;106221;1252;74859;-85
2024/04/06 04:37:34;;;;;;;;;;;;;;;8.87;100.00;100981.46;106637;1256;62296;-86
2024/04/06 04:40:20;;;;;;;;;;;;;;;9.33;100.00;100977.52;107067;1254;62060;-86
2024/04/06 04:42:47;;;;;;;;;;;;;;;9.71;100.00;100972.55;106296;1254;77384;-86
2024/04/06 04:45:33;;;;;;;;;;;;;;;10.17;100.00;100973.66;106631;1251;67298;-85
2024/04/06 04:48:00;;;;;;;;;;;;;;;10.57;100.00;100973.23;106389;1257;73651;-85
2024/04/06 04:50:46;;;;;;;;;;;;;;;10.93;100.00;100971.74;106267;1253;63298;-86
2024/04/06 04:53:32;;;;;;;;;;;;;;;11.23;100.00;100968.46;108040;1252;59865;-86
2024/04/06 04:56:18;;;;;;;;;;;;;;;11.47;100.00;100972.38;106798;1254;76815;-87
2024/04/06 04:58:45;;;;;;;;;;;;;;;11.68;100.00;100970.97;106573;1254;71500;-84
2024/04/06 05:01:31;;;;;;;;;;;;;;;11.87;100.00;100972.57;106771;1254;74156;-85
2024/04/06 05:03:58;;;;;;;;;;;;;;;12.02;100.00;100971.52;106376;1260;62037;-85
2024/04/06 05:06:26;;;;;;;;;;;;;;;12.19;100.00;100969.02;106772;1254;62214;-85
2024/04/06 05:08:53;;;;;;;;;;;;;;;12.37;100.00;100964.97;106545;1254;73784;-85
2024/04/06 05:11:39;;;;;;;;;;;;;;;12.57;100.00;100972.90;106485;1254;68380;-86
2024/04/06 05:14:07;;;;;;;;;;;;;;;12.75;100.00;100970.58;106299;1257;75270;-85
2024/04/06 05:16:35;;;;;;;;;;;;;;;12.91;100.00;100970.89;106409;1253;62047;-86
2024/04/06 05:19:05;;;;;;;;;;;;;;;13.06;100.00;100968.88;106337;1254;61993;-85
2024/04/06 05:21:51;;;;;;;;;;;;;;;13.23;100.00;100971.27;106267;1254;76863;-86
2024/04/06 05:24:18;;;;;;;;;;;;;;;13.39;100.00;100969.53;106301;1254;69767;-85
2024/04/06 05:26:46;;;;;;;;;;;;;;;13.57;100.00;100970.71;106478;1253;76009;-86
2024/04/06 05:29:14;;;;;;;;;;;;;;;13.76;100.00;100970.06;106313;1256;62334;-85
2024/04/06 05:31:59;;;;;;;;;;;;;;;13.97;100.00;100974.16;106278;1256;61973;-85
2024/04/06 05:34:45;;;;;;;;;;;;;;;14.17;100.00;100974.11;106592;1251;76856;-86
2024/04/06 05:37:12;;;;;;;;;;;;;;;14.34;100.00;100972.63;106264;1254;71067;-87
2024/04/06 05:39:39;;;;;;;;;;;;;;;14.48;100.00;100973.34;106385;1253;73280;-86
2024/04/06 05:42:27;;;;;;;;;;;;;;;14.61;100.00;100970.64;106352;1254;62133;-86
2024/04/06 05:44:54;;;;;;;;;;;;;;;14.70;100.00;100971.58;106386;1253;62165;-86
2024/04/06 05:47:22;;;;;;;;;;;;;;;14.74;100.00;100970.10;106413;1254;75818;-86
2024/04/06 05:50:07;;;;;;;;;;;;;;;14.74;100.00;100973.11;106529;1254;69335;-86
2024/04/06 05:52:35;;;;;;;;;;;;;;;14.73;100.00;100975.98;106332;1254;72758;-85
2024/04/06 05:55:05;;;;;;;;;;;;;;;14.75;100.00;100973.17;106379;1252;62168;-86
2024/04/06 05:57:32;;;;;;;;;;;;;;;14.80;100.00;100972.91;106474;1252;62243;-86
2024/04/06 06:00:00;;;;;;;;;;;;;;;14.88;100.00;100968.37;106682;1256;75658;-84
2024/04/06 06:02:48;;;;;;;;;;;;;;;14.96;100.00;100970.23;106763;1254;70595;-86
2024/04/06 06:05:16;;;;;;;;;;;;;;;15.04;100.00;100970.57;106322;1257;73679;-83
2024/04/06 06:07:43;;;;;;;;;;;;;;;15.10;100.00;100973.35;106119;1260;62162;-85
2024/04/06 06:10:29;;;;;;;;;;;;;;;15.16;100.00;100971.94;106406;1253;62767;-83
2024/04/06 06:13:15;;;;;;;;;;;;;;;15.22;100.00;100974.93;106389;1257;78956;-83
2024/04/06 06:15:42;;;;;;;;;;;;;;;15.27;100.00;100973.74;106469;1254;70876;-86
2024/04/06 06:18:27;;;;;;;;;;;;;;;15.31;100.00;100979.01;106557;1253;72596;-86
2024/04/06 06:20:55;;;;;;;;;;;;;;;15.33;100.00;100979.30;106233;1256;62033;-84
2024/04/06 06:23:23;;;;;;;;;;;;;;;15.37;100.00;100981.16;106351;1254;62153;-86
2024/04/06 06:25:50;;;;;;;;;;;;;;;15.48;100.00;100977.20;106325;1258;77794;-83
2024/04/06 06:28:17;;;;;;;;;;;;;;;15.60;100.00;100973.09;106406;1254;69837;-86
2024/04/06 06:30:46;;;;;;;;;;;;;;;15.69;100.00;100975.31;106527;1256;71540;-84
2024/04/06 06:33:31;;;;;;;;;;;;;;;15.83;100.00;100978.91;106503;1258;62170;-84
2024/04/06 06:36:18;;;;;;;;;;;;;;;15.98;100.00;100979.09;106483;1256;62034;-86
2024/04/06 06:39:06;;;;;;;;;;;;;;;16.15;100.00;100977.35;106364;1254;74136;-83
2024/04/06 06:41:37;;;;;;;;;;;;;;;16.27;100.00;100976.70;106425;1254;68054;-83
2024/04/06 06:44:06;;;;;;;;;;;;;;;16.39;100.00;100975.79;106479;1257;72793;-83
2024/04/06 06:46:34;;;;;;;;;;;;;;;16.58;100.00;100972.65;106387;1254;62657;-87
2024/04/06 06:49:02;;;;;;;;;;;;;;;16.80;100.00;100972.93;106301;1254;61182;-86
2024/04/06 06:51:29;;;;;;;;;;;;;;;16.98;100.00;100966.77;106457;1252;75501;-84
2024/04/06 06:53:57;;;;;;;;;;;;;;;17.10;100.00;100960.35;106364;1254;71926;-83
2024/04/06 06:56:43;;;;;;;;;;;;;;;17.19;100.00;100960.50;106562;1253;72186;-87
2024/04/06 06:59:29;;;;;;;;;;;;;;;17.22;100.00;100957.88;106479;1256;62056;-87
2024/04/06 07:02:17;;;;;;;;;;;;;;;17.26;100.00;100953.41;106594;1253;62016;-87
2024/04/06 07:05:03;;;;;;;;;;;;;;;17.30;100.00;100952.84;106950;1254;76842;-83
2024/04/06 07:07:55;;;;;;;;;;;;;;;17.39;100.00;100951.86;106539;1254;70082;-84
2024/04/06 07:10:41;;;;;;;;;;;;;;;17.49;100.00;100952.65;106469;1253;71344;-83
2024/04/06 07:13:08;;;;;;;;;;;;;;;17.60;100.00;100949.52;106467;1254;62079;-83
2024/04/06 07:15:36;;;;;;;;;;;;;;;17.77;100.00;100945.05;106486;1254;62064;-86
2024/04/06 07:18:21;;;;;;;;;;;;;;;18.04;97.29;100940.66;106925;1254;76527;-86
2024/04/06 07:21:10;;;;;;;;;;;;;;;18.28;95.60;100939.39;106670;1256;69208;-85
2024/04/06 07:23:55;;;;;;;;;;;;;;;18.56;92.46;100932.06;106466;1254;74019;-87
2024/04/06 07:26:41;;;;;;;;;;;;;;;18.73;88.70;100930.98;106545;1253;62002;-83
2024/04/06 07:29:08;;;;;;;;;;;;;;;18.87;86.00;100924.55;106485;1254;62118;-85
2024/04/06 07:31:54;;;;;;;;;;;;;;;19.04;84.46;100916.38;106349;1254;73626;-82
2024/04/06 07:34:21;;;;;;;;;;;;;;;19.21;82.22;100919.31;106358;1254;68514;-85
2024/04/06 07:37:07;;;;;;;;;;;;;;;19.30;74.58;100916.34;106759;1254;71719;-82
2024/04/06 07:39:34;;;;;;;;;;;;;;;19.29;73.04;100911.55;106403;1256;62175;-85
2024/04/06 07:42:02;;;;;;;;;;;;;;;19.32;76.16;100907.14;106310;1253;62171;-83
2024/04/06 07:44:47;;;;;;;;;;;;;;;19.51;75.50;100900.94;106642;1254;73994;-83
2024/04/06 07:47:33;;;;;;;;;;;;;;;19.64;74.38;100901.83;106578;1254;68477;-82
2024/04/06 07:50:00;;;;;;;;;;;;;;;19.81;71.81;100894.04;106503;1254;71520;-84
2024/04/06 07:52:46;;;;;;;;;;;;;;;19.95;66.23;100894.61;106486;1254;62126;-81
2024/04/06 07:55:31;;;;;;;;;;;;;;;20.03;68.42;100894.88;106541;1253;62073;-85
2024/04/06 07:58:17;;;;;;;;;;;;;;;20.15;64.40;100894.43;106533;1255;76623;-83
2024/04/06 08:00:44;;;;;;;;;;;;;;;20.17;62.37;100890.08;106337;1254;68967;-82
2024/04/06 08:03:12;;;;;;;;;;;;;;;20.24;60.16;100888.65;106502;1257;72853;-85
2024/04/06 08:06:01;;;;;;;;;;;;;;;20.20;59.26;100886.27;106630;1253;63547;-85
2024/04/06 08:08:46;;;;;;;;;;;;;;;20.15;59.78;100885.39;106529;1254;62053;-85
2024/04/06 08:11:32;;;;;;;;;;;;;;;20.21;59.86;100880.96;107170;1251;74355;-85
2024/04/06 08:14:18;;;;;;;;;;;;;;;20.34;59.45;100876.78;106647;1254;70061;-82
2024/04/06 08:17:10;;;;;;;;;;;;;;;20.47;57.67;100877.94;106718;1256;74068;-82
2024/04/06 08:19:55;;;;;;;;;;;;;;;20.56;57.47;100875.13;106461;1252;62139;-85
2024/04/06 08:22:41;;;;;;;;;;;;;;;20.69;56.30;100874.39;106416;1254;61989;-84
2024/04/06 08:25:27;;;;;;;;;;;;;;;20.82;55.40;100869.48;106716;1254;74514;-84
2024/04/06 08:27:54;;;;;;;;;;;;;;;20.86;54.92;100866.62;106385;1254;70884;-84
2024/04/06 08:30:22;;;;;;;;;;;;;;;20.85;54.17;100868.73;106362;1254;74905;-82
2024/04/06 08:32:56;;;;;;;;;;;;;;;20.86;54.72;100866.79;106371;1254;62113;-84
2024/04/06 08:35:28;;;;;;;;;;;;;;;21.03;54.59;100866.67;106619;1256;62522;-83
2024/04/06 08:37:56;;;;;;;;;;;;;;;21.21;53.41;100860.11;106395;1254;76320;-83
2024/04/06 08:40:23;;;;;;;;;;;;;;;21.44;51.49;100862.72;106907;1257;69409;-85
2024/04/06 08:43:11;;;;;;;;;;;;;;;21.55;50.11;100855.41;109393;1252;72589;-86
2024/04/06 08:45:56;;;;;;;;;;;;;;;21.58;49.10;100851.88;109375;1253;60026;-86
2024/04/06 08:48:43;;;;;;;;;;;;;;;21.57;48.73;100851.58;109409;1252;59868;-86
2024/04/06 08:51:11;;;;;;;;;;;;;;;21.53;48.66;100852.09;109280;1253;75047;-86
2024/04/06 08:53:57;;;;;;;;;;;;;;;21.44;48.30;100855.76;107838;1256;68582;-83
2024/04/06 08:56:42;;;;;;;;;;;;;;;21.32;48.06;100854.89;106290;1252;74133;-83
2024/04/06 08:59:10;;;;;;;;;;;;;;;21.25;48.57;100850.36;106367;1254;62045;-86
2024/04/06 09:01:55;;;;;;;;;;;;;;;21.31;47.24;100842.48;106561;1253;62623;-85
2024/04/06 09:04:41;;;;;;;;;;;;;;;21.36;47.34;100844.30;106498;1254;76895;-86
2024/04/06 09:07:08;;;;;;;;;;;;;;;21.35;45.94;100847.90;106422;1254;71145;-83
2024/04/06 09:09:54;;;;;;;;;;;;;;;21.21;45.66;100848.20;106475;1254;72598;-84
2024/04/06 09:12:40;;;;;;;;;;;;;;;21.04;46.56;100838.72;106499;1254;62085;-85
2024/04/06 09:15:25;;;;;;;;;;;;;;;21.02;47.36;100838.25;106382;1256;62012;-83
2024/04/06 09:17:53;;;;;;;;;;;;;;;21.04;46.86;100836.40;106563;1256;77607;-86
2024/04/06 09:20:20;;;;;;;;;;;;;;;20.94;47.04;100834.85;106448;1257;69613;-83
2024/04/06 09:23:06;;;;;;;;;;;;;;;20.89;47.76;100826.66;106453;1253;74089;-86
2024/04/06 09:25:33;;;;;;;;;;;;;;;20.98;47.05;100823.65;106813;1253;62124;-83
2024/04/06 09:28:19;;;;;;;;;;;;;;;21.11;45.23;100822.13;106835;1254;62018;-83
2024/04/06 09:31:04;;;;;;;;;;;;;;;21.11;44.67;100816.27;106549;1257;76765;-83
2024/04/06 09:33:49;;;;;;;;;;;;;;;21.12;45.03;100812.02;106317;1257;67207;-84
2024/04/06 09:36:35;;;;;;;;;;;;;;;21.23;45.20;100809.38;106661;1256;74641;-86
2024/04/06 09:39:04;;;;;;;;;;;;;;;21.46;44.49;100804.82;106482;1258;61999;-84
2024/04/06 09:41:50;;;;;;;;;;;;;;;21.67;44.11;100807.19;106684;1254;62156;-87
2024/04/06 09:44:17;;;;;;;;;;;;;;;21.73;44.28;100800.55;106590;1257;76003;-87
2024/04/06 09:47:05;;;;;;;;;;;;;;;21.79;44.72;100795.29;106546;1253;70010;-83
2024/04/06 09:49:51;;;;;;;;;;;;;;;21.83;43.94;100797.80;106562;1256;74849;-83
2024/04/06 09:52:21;;;;;;;;;;;;;;;21.69;44.23;100796.39;106290;1258;62078;-87
2024/04/06 09:54:49;;;;;;;;;;;;;;;21.55;44.35;100796.14;106423;1259;62064;-86
2024/04/06 09:57:36;;;;;;;;;;;;;;;21.46;44.57;100795.61;106476;1253;74518;-84
2024/04/06 10:00:04;;;;;;;;;;;;;;;21.50;44.61;100793.05;106421;1254;67269;-86
2024/04/06 10:02:50;;;;;;;;;;;;;;;21.56;44.45;100788.39;106563;1256;73932;-84
2024/04/06 10:05:18;;;;;;;;;;;;;;;21.49;43.64;100786.26;106600;1258;62235;-84
2024/04/06 10:07:47;;;;;;;;;;;;;;;21.43;43.91;100787.25;106581;1254;62110;-87
2024/04/06 10:10:14;;;;;;;;;;;;;;;21.32;43.48;100783.81;106415;1253;76001;-83
2024/04/06 10:13:03;;;;;;;;;;;;;;;21.22;43.40;100781.02;106634;1254;72107;-87
2024/04/06 10:15:31;;;;;;;;;;;;;;;21.16;43.53;100774.44;106405;1254;72859;-88
2024/04/06 10:18:16;;;;;;;;;;;;;;;21.16;44.02;100775.81;106400;1254;62069;-87
2024/04/06 10:21:09;;;;;;;;;;;;;;;21.22;44.52;100768.84;106652;1256;62074;-87
2024/04/06 10:23:38;;;;;;;;;;;;;;;21.17;43.72;100767.80;107743;1253;74580;-85
2024/04/06 10:26:12;;;;;;;;;;;;;;;21.09;43.11;100769.77;107062;1257;69926;-87
2024/04/06 10:28:57;;;;;;;;;;;;;;;20.94;43.18;100767.02;106739;1254;74017;-88
2024/04/06 10:31:25;;;;;;;;;;;;;;;20.85;43.51;100767.30;106474;1254;62154;-85
2024/04/06 10:34:27;;;;;;;;;;;;;;;20.89;43.40;100762.07;106829;1254;62069;-83
2024/04/06 10:37:23;;;;;;;;;;;;;;;20.95;43.26;100757.82;106539;1254;74017;-83
2024/04/06 10:40:09;;;;;;;;;;;;;;;20.98;43.12;100759.54;106459;1255;67277;-86
2024/04/06 10:42:40;;;;;;;;;;;;;;;20.98;43.30;100758.19;106591;1254;72349;-83
2024/04/06 10:45:08;;;;;;;;;;;;;;;20.95;43.25;100756.32;106450;1255;62054;-82
2024/04/06 10:47:53;;;;;;;;;;;;;;;20.94;43.06;100757.02;106579;1254;62066;-83
2024/04/06 10:50:21;;;;;;;;;;;;;;;20.91;42.14;100755.23;106534;1253;76501;-82
2024/04/06 10:52:48;;;;;;;;;;;;;;;20.90;42.55;100753.92;106468;1254;67519;-85
2024/04/06 10:55:34;;;;;;;;;;;;;;;20.98;46.76;100764.14;106745;1254;71134;-86
2024/04/06 10:58:01;;;;;;;;;;;;;;;20.83;50.70;100761.83;106308;1254;62051;-85
2024/04/06 11:00:47;;;;;;;;;;;;;;;20.56;52.64;100761.30;106513;1254;61993;-83
2024/04/06 11:03:33;;;;;;;;;;;;;;;20.35;54.42;100755.52;106684;1252;74037;-84
2024/04/06 11:06:00;;;;;;;;;;;;;;;20.25;58.43;100752.67;106330;1254;68621;-86
2024/04/06 11:08:46;;;;;;;;;;;;;;;20.19;60.63;100748.56;106521;1252;72509;-84
2024/04/06 11:11:14;;;;;;;;;;;;;;;20.13;58.44;100743.50;106293;1254;63649;-86
2024/04/06 11:13:41;;;;;;;;;;;;;;;20.07;60.86;100739.35;106518;1257;61890;-86
2024/04/06 11:16:09;;;;;;;;;;;;;;;20.01;62.00;100745.88;106330;1254;76402;-87
2024/04/06 11:18:56;;;;;;;;;;;;;;;20.09;64.00;100733.77;106422;1256;68610;-83
2024/04/06 11:21:23;;;;;;;;;;;;;;;20.27;69.98;100731.80;106042;1254;74946;-85
2024/04/06 11:24:09;;;;;;;;;;;;;;;20.38;67.34;100723.75;106441;1253;62151;-84
2024/04/06 11:27:04;;;;;;;;;;;;;;;20.39;63.49;100717.98;106437;1257;62088;-88
2024/04/06 11:29:49;;;;;;;;;;;;;;;20.42;60.18;100719.44;106602;1256;74075;-83
2024/04/06 11:32:21;;;;;;;;;;;;;;;20.40;58.43;100715.83;106729;1259;67760;-83
2024/04/06 11:34:49;;;;;;;;;;;;;;;20.42;53.68;100717.41;107290;1257;71129;-83
2024/04/06 11:37:35;;;;;;;;;;;;;;;20.56;55.17;100716.88;107168;1254;62145;-88
2024/04/06 11:40:02;;;;;;;;;;;;;;;20.69;57.79;100707.77;107433;1257;62021;-88
2024/04/06 11:42:30;;;;;;;;;;;;;;;20.78;54.99;100708.27;106457;1259;77688;-88
2024/04/06 11:44:59;;;;;;;;;;;;;;;20.89;55.57;100709.59;106572;1254;67966;-84
2024/04/06 11:47:46;;;;;;;;;;;;;;;21.04;58.02;100702.04;106531;1252;74023;-87
2024/04/06 11:50:31;;;;;;;;;;;;;;;21.11;56.61;100696.94;106823;1254;61956;-83
2024/04/06 11:52:59;;;;;;;;;;;;;;;21.15;52.95;100692.40;106958;1251;62242;-83
2024/04/06 11:55:26;;;;;;;;;;;;;;;21.24;51.36;100689.14;107666;1252;77693;-87
2024/04/06 11:58:12;;;;;;;;;;;;;;;21.37;47.86;100682.76;107875;1252;67720;-84
2024/04/06 12:00:40;;;;;;;;;;;;;;;21.51;47.19;100679.02;106761;1254;73400;-83
2024/04/06 12:03:25;;;;;;;;;;;;;;;21.63;44.53;100676.54;107305;1253;62119;-84
2024/04/06 12:06:13;;;;;;;;;;;;;;;21.72;47.67;100680.14;106778;1256;61942;-84
2024/04/06 12:08:59;;;;;;;;;;;;;;;21.65;51.00;100679.29;107314;1256;76449;-84
2024/04/06 12:11:44;;;;;;;;;;;;;;;21.66;51.07;100671.85;107207;1254;67286;-83
2024/04/06 12:14:30;;;;;;;;;;;;;;;21.76;48.54;100663.74;106668;1254;74034;-87
2024/04/06 12:17:24;;;;;;;;;;;;;;;21.80;49.68;100666.27;107680;1254;62026;-88
2024/04/06 12:20:09;;;;;;;;;;;;;;;21.80;49.19;100668.70;108741;1252;60766;-88
2024/04/06 12:22:37;;;;;;;;;;;;;;;21.73;44.22;100658.17;106792;1254;73850;-83
2024/04/06 12:25:06;;;;;;;;;;;;;;;21.72;42.52;100653.21;106630;1254;68441;-88
2024/04/06 12:27:34;;;;;;;;;;;;;;;21.75;42.60;100650.29;106464;1254;73538;-83
2024/04/06 12:30:19;;;;;;;;;;;;;;;21.92;42.38;100648.33;106543;1254;62051;-83
2024/04/06 12:33:04;;;;;;;;;;;;;;;22.04;40.78;100642.57;106735;1256;62165;-87
2024/04/06 12:35:32;;;;;;;;;;;;;;;22.14;41.78;100637.21;106350;1254;75917;-83
2024/04/06 12:38:17;;;;;;;;;;;;;;;22.31;41.97;100628.52;106299;1254;70028;-86
2024/04/06 12:40:45;;;;;;;;;;;;;;;22.42;41.56;100627.07;106695;1254;71532;-83
2024/04/06 12:43:31;;;;;;;;;;;;;;;22.45;40.67;100627.05;106615;1253;62085;-88
2024/04/06 12:46:01;;;;;;;;;;;;;;;22.43;40.38;100624.45;106505;1254;62131;-84
2024/04/06 12:48:28;;;;;;;;;;;;;;;22.40;39.61;100622.02;106286;1254;76127;-83
2024/04/06 12:50:56;;;;;;;;;;;;;;;22.41;39.99;100626.48;106488;1254;69872;-83
2024/04/06 12:53:24;;;;;;;;;;;;;;;22.41;39.90;100624.89;106526;1254;74920;-84
2024/04/06 12:55:51;;;;;;;;;;;;;;;22.39;39.52;100623.70;105799;1254;659215;-83
2024/04/06 12:58:19;;;;;;;;;;;;;;;22.34;38.94;100624.31;106584;1254;61989;-87
2024/04/06 13:00:46;;;;;;;;;;;;;;;22.23;38.86;100621.36;106431;1258;77428;-87
2024/04/06 13:03:14;;;;;;;;;;;;;;;22.11;38.81;100625.04;106446;1254;70982;-83
2024/04/06 13:05:41;;;;;;;;;;;;;;;22.08;38.87;100622.83;106962;1254;74936;-83
2024/04/06 13:08:09;;;;;;;;;;;;;;;22.04;39.12;100615.77;106331;1252;62057;-87
2024/04/06 13:10:36;;;;;;;;;;;;;;;21.98;39.38;100616.00;106522;1254;62078;-83
2024/04/06 13:13:04;;;;;;;;;;;;;;;21.96;39.22;100610.30;106531;1253;77711;-83
2024/04/06 13:15:31;;;;;;;;;;;;;;;22.07;39.14;100608.33;106651;1251;68249;-88